createdAt,value
2022-08-19T00:01:07.909Z,97580.66
2022-08-19T00:03:50.741Z,97575.63
2022-08-19T00:06:40.687Z,97584.00
2022-08-19T00:09:37.576Z,97583.63
2022-08-19T00:12:32.691Z,97586.88
2022-08-19T00:15:18.301Z,97591.72
2022-08-19T00:18:06.595Z,97592.28
2022-08-19T00:20:56.196Z,97597.56
2022-08-19T00:23:38.574Z,97595.69
2022-08-19T00:26:27.835Z,97605.03
2022-08-19T00:29:11.786Z,97606.38
2022-08-19T00:31:58.836Z,97607.59
2022-08-19T00:34:47.913Z,97608.84
2022-08-19T00:37:37.045Z,97614.94
2022-08-19T00:40:20.865Z,97613.31
2022-08-19T00:43:09.196Z,97621.25
2022-08-19T00:45:51.573Z,97622.19
2022-08-19T00:48:42.971Z,97623.75
2022-08-19T00:51:25.586Z,97624.31
2022-08-19T00:54:14.213Z,97632.19
2022-08-19T00:56:58.868Z,97640.66
2022-08-19T01:00:00.781Z,97640.56
2022-08-19T01:02:50.633Z,97643.78
2022-08-19T01:05:39.903Z,97645.72
2022-08-19T01:08:24.932Z,97650.22
2022-08-19T01:11:20.532Z,97652.00
2022-08-19T01:14:08.619Z,97656.59
2022-08-19T01:16:51.934Z,97650.53
2022-08-19T01:19:44.873Z,97650.22
2022-08-19T01:22:33.856Z,97655.16
2022-08-19T01:25:27.685Z,97656.00
2022-08-19T01:28:18.688Z,97653.78
2022-08-19T01:31:27.839Z,97667.38
2022-08-19T01:34:11.945Z,97670.34
2022-08-19T01:37:00.086Z,97671.72
2022-08-19T01:39:41.556Z,97677.81
2022-08-19T01:42:30.723Z,97683.91
2022-08-19T01:45:13.676Z,97684.34
2022-08-19T01:48:02.853Z,97681.47
2022-08-19T01:50:46.580Z,97688.56
2022-08-19T01:53:30.500Z,97693.78
2022-08-19T01:56:23.699Z,97691.56
2022-08-19T01:59:17.591Z,97687.78
2022-08-19T02:02:06.721Z,97690.78
2022-08-19T02:04:49.021Z,97689.97
2022-08-19T09:03:18.910Z,97645.63
2022-08-19T09:06:25.880Z,97635.00
2022-08-19T09:09:23.506Z,97636.25
2022-08-19T09:13:10.794Z,97635.88
2022-08-19T09:16:25.612Z,97626.88
2022-08-19T09:19:22.227Z,97623.31
2022-08-19T09:22:08.679Z,97621.19
2022-08-19T09:25:01.952Z,97610.28
2022-08-19T09:27:46.269Z,97603.25
2022-08-19T09:30:52.995Z,97610.28
2022-08-19T09:33:35.099Z,97596.00
2022-08-19T09:36:34.757Z,97603.03
2022-08-19T09:39:17.108Z,97607.84
2022-08-19T09:42:05.827Z,97597.00
2022-08-19T09:45:10.175Z,97603.28
2022-08-19T09:47:52.959Z,97600.13
2022-08-19T09:50:51.927Z,97594.72
2022-08-19T09:53:35.898Z,97582.41
2022-08-19T09:56:21.636Z,97588.97
2022-08-19T09:59:10.913Z,97575.28
2022-08-19T10:01:53.624Z,97569.78
2022-08-19T10:05:02.097Z,97574.38
2022-08-19T10:07:56.950Z,97568.47
2022-08-19T10:10:46.724Z,97563.53
2022-08-19T10:13:31.124Z,97573.19
2022-08-19T10:16:31.025Z,97556.69
2022-08-19T10:19:13.096Z,97549.13
2022-08-19T10:22:03.929Z,97558.31
2022-08-19T10:24:52.826Z,97552.44
2022-08-19T10:27:51.355Z,97542.06
2022-08-19T10:30:40.827Z,97548.34
2022-08-19T10:33:38.882Z,97543.09
2022-08-19T10:36:52.278Z,97536.31
2022-08-19T10:39:48.029Z,97533.00
2022-08-19T10:42:33.196Z,97530.16
2022-08-19T10:45:22.938Z,97537.19
2022-08-19T10:48:15.657Z,97523.19
2022-08-19T10:51:22.744Z,97526.41
2022-08-19T10:54:12.542Z,97514.53
2022-08-19T10:57:01.916Z,97514.84
2022-08-19T10:59:44.232Z,97515.81
2022-08-19T11:02:32.921Z,97515.75
2022-08-19T11:05:16.668Z,97515.00
2022-08-19T11:08:23.176Z,97508.91
2022-08-19T11:11:08.126Z,97510.63
2022-08-19T11:13:58.927Z,97506.50
2022-08-19T11:16:41.486Z,97504.34
2022-08-19T11:19:31.928Z,97497.63
2022-08-19T11:22:14.738Z,97494.81
2022-08-19T11:25:07.913Z,97482.19
2022-08-19T11:27:56.280Z,97483.50
2022-08-19T11:30:37.909Z,97488.69
2022-08-19T11:33:21.137Z,97489.50
2022-08-19T11:36:09.907Z,97490.22
2022-08-19T11:38:56.874Z,97476.59
2022-08-19T11:41:45.882Z,97486.63
2022-08-19T11:44:37.960Z,97481.69
2022-08-19T11:47:20.956Z,97471.09
2022-08-19T11:50:09.277Z,97466.34
2022-08-19T11:52:52.834Z,97469.88
2022-08-19T11:55:44.959Z,97467.41
2022-08-19T11:58:27.927Z,97460.94
2022-08-19T12:01:13.181Z,97457.09
2022-08-19T12:04:05.812Z,97453.09
2022-08-19T12:07:00.781Z,97450.78
2022-08-19T12:09:55.825Z,97458.69
2022-08-19T12:12:39.996Z,97454.78
2022-08-19T12:15:29.967Z,97453.66
2022-08-19T12:18:19.114Z,97453.16
2022-08-19T12:21:08.926Z,97455.81
2022-08-19T12:23:59.890Z,97457.41
2022-08-19T12:26:53.316Z,97447.72
2022-08-19T12:30:09.514Z,97449.72
2022-08-19T12:32:51.890Z,97443.97
2022-08-19T12:35:34.189Z,97445.09
2022-08-19T12:38:23.819Z,97455.03
2022-08-19T12:41:08.238Z,97460.25
2022-08-19T12:43:57.923Z,97466.06
2022-08-19T12:46:40.225Z,97470.44
2022-08-19T12:49:54.671Z,97458.75
2022-08-19T12:52:34.193Z,97456.09
2022-08-19T12:55:22.900Z,97447.72
2022-08-19T12:58:41.765Z,97455.72
2022-08-19T13:01:42.793Z,97454.03
2022-08-19T13:04:25.116Z,97457.03
2022-08-19T13:07:13.945Z,97460.97
2022-08-19T13:10:08.815Z,97471.00
2022-08-19T13:12:59.973Z,97461.13
2022-08-19T13:16:01.226Z,97457.41
2022-08-19T13:18:51.829Z,97462.63
2022-08-19T13:21:36.094Z,97461.84
2022-08-19T13:24:31.360Z,97467.41
2022-08-19T13:27:16.197Z,97465.44
2022-08-19T13:30:22.944Z,97476.25
2022-08-19T13:33:15.520Z,97477.84
2022-08-19T13:36:09.915Z,97474.63
2022-08-19T13:38:53.817Z,97479.81
2022-08-19T13:41:42.906Z,97481.78
2022-08-19T13:44:26.208Z,97480.94
2022-08-19T13:47:15.839Z,97487.75
2022-08-19T13:50:01.389Z,97485.44
2022-08-19T13:52:49.904Z,97488.25
2022-08-19T13:55:35.240Z,97489.41
2022-08-19T13:58:23.961Z,97490.19
2022-08-19T14:01:07.229Z,97492.22
2022-08-19T14:04:14.877Z,97499.78
2022-08-19T14:07:22.825Z,97493.78
2022-08-19T14:10:39.914Z,97496.16
2022-08-19T14:13:28.954Z,97489.00
2022-08-19T14:16:38.948Z,97500.16
2022-08-19T14:19:36.026Z,97503.34
2022-08-19T14:22:50.047Z,97506.53
2022-08-19T14:26:15.532Z,97500.97
2022-08-19T14:29:23.965Z,97501.75
2022-08-19T14:32:26.539Z,97507.34
2022-08-19T14:35:36.077Z,97509.72
2022-08-19T14:38:38.666Z,97509.72
2022-08-19T14:41:46.858Z,97509.69
2022-08-19T14:44:48.077Z,97509.31
2022-08-19T14:47:56.113Z,97511.28
2022-08-19T14:51:05.847Z,97517.25
2022-08-19T14:54:12.917Z,97528.41
2022-08-19T14:57:17.914Z,97526.41
2022-08-19T15:00:26.838Z,97523.63
2022-08-19T15:03:28.346Z,97533.19
2022-08-19T15:06:36.924Z,97539.13
2022-08-19T15:09:38.290Z,97540.72
2022-08-19T15:12:26.952Z,97542.69
2022-08-19T15:15:27.426Z,97542.31
2022-08-19T15:18:20.834Z,97554.22
2022-08-19T15:21:10.043Z,97555.81
2022-08-19T15:23:57.230Z,97565.38
2022-08-19T15:26:46.975Z,97565.38
2022-08-19T15:29:29.664Z,97563.78
2022-08-19T15:32:19.875Z,97565.78
2022-08-19T15:35:10.266Z,97561.31
2022-08-19T15:37:56.486Z,97568.91
2022-08-19T15:40:45.981Z,97576.50
2022-08-19T15:43:28.076Z,97585.22
2022-08-19T15:46:20.003Z,97589.25
2022-08-19T15:49:05.314Z,97593.50
2022-08-19T15:51:55.919Z,97604.25
2022-08-19T15:54:39.056Z,97603.47
2022-08-19T15:57:30.948Z,97601.84
2022-08-19T16:00:38.826Z,97616.06
2022-08-19T16:03:41.946Z,97619.63
2022-08-19T16:06:32.523Z,97620.06
2022-08-19T16:09:16.369Z,97612.16
2022-08-19T16:12:15.786Z,97631.22
2022-08-19T16:15:13.584Z,97634.84
2022-08-19T16:17:57.844Z,97642.38
2022-08-19T16:20:46.988Z,97647.91
2022-08-19T16:23:29.186Z,97651.91
2022-08-19T16:26:17.993Z,97657.47
2022-08-19T16:29:12.188Z,97664.69
2022-08-19T16:31:57.944Z,97667.38
2022-08-19T16:34:48.228Z,97677.19
2022-08-19T16:37:30.793Z,97672.56
2022-08-19T16:40:20.758Z,97668.09
2022-08-19T16:43:03.981Z,97665.72
2022-08-19T16:45:56.301Z,97670.94
2022-08-19T16:48:40.865Z,97676.50
2022-08-19T16:51:30.905Z,97683.59
2022-08-19T16:54:14.286Z,97676.91
2022-08-19T16:57:03.890Z,97684.41
2022-08-19T16:59:52.913Z,97694.56
2022-08-19T17:02:42.801Z,97691.03
2022-08-19T17:05:31.926Z,97696.28
2022-08-19T17:08:14.632Z,97693.84
2022-08-19T17:11:17.622Z,97698.72
2022-08-19T17:14:12.744Z,97694.94
2022-08-19T17:17:07.897Z,97692.19
2022-08-19T17:19:56.090Z,97683.59
2022-08-19T17:22:37.929Z,97681.88
2022-08-19T17:25:20.041Z,97676.78
2022-08-19T17:28:09.815Z,97682.22
2022-08-19T17:30:58.920Z,97679.06
2022-08-19T17:33:42.207Z,97686.06
2022-08-19T17:36:30.888Z,97679.78
2022-08-19T17:39:13.360Z,97687.31
2022-08-19T17:42:02.766Z,97671.03
2022-08-19T17:44:51.916Z,97667.94
2022-08-19T17:47:42.916Z,97667.13
2022-08-19T17:50:28.355Z,97660.44
2022-08-19T17:53:18.181Z,97656.81
2022-08-19T17:56:06.796Z,97662.41
2022-08-19T17:59:00.428Z,97674.34
2022-08-19T18:01:54.140Z,97673.00
2022-08-19T18:04:48.236Z,97655.13
2022-08-19T18:07:37.888Z,97655.69
2022-08-19T18:10:34.708Z,97652.88
2022-08-19T18:13:23.922Z,97655.38
2022-08-19T18:16:19.777Z,97651.78
2022-08-19T18:19:14.801Z,97651.59
2022-08-19T18:22:03.222Z,97651.25
2022-08-19T18:24:49.976Z,97654.88
2022-08-19T18:27:32.678Z,97660.75
2022-08-19T18:30:22.950Z,97660.00
2022-08-19T18:33:14.723Z,97659.84
2022-08-19T18:36:04.911Z,97661.63
2022-08-19T18:39:08.160Z,97654.31
2022-08-19T18:42:14.842Z,97658.31
2022-08-19T18:45:21.805Z,97667.59
2022-08-19T18:48:27.731Z,97669.66
2022-08-19T18:51:20.027Z,97672.25
2022-08-19T18:54:10.797Z,97668.75
2022-08-19T18:57:03.422Z,97665.19
2022-08-19T18:59:48.545Z,97666.81
2022-08-19T19:02:37.798Z,97661.84
2022-08-19T19:05:26.807Z,97666.94
2022-08-19T19:08:15.989Z,97664.88
2022-08-19T19:10:59.978Z,97662.66
2022-08-19T19:13:48.894Z,97668.69
2022-08-19T19:16:31.213Z,97660.63
2022-08-19T19:19:28.058Z,97660.56
2022-08-19T19:22:26.783Z,97659.06
2022-08-19T19:25:16.938Z,97660.25
2022-08-19T19:28:05.963Z,97655.47
2022-08-19T19:30:54.843Z,97659.47
2022-08-19T19:33:43.908Z,97659.13
2022-08-19T19:36:32.800Z,97655.66
2022-08-19T19:39:44.769Z,97654.19
2022-08-19T19:42:25.521Z,97667.91
2022-08-19T19:45:14.950Z,97668.91
2022-08-19T19:48:03.240Z,97668.66
2022-08-19T19:50:44.887Z,97665.31
2022-08-19T19:53:34.819Z,97665.38
2022-08-19T19:56:23.880Z,97658.34
2022-08-19T19:59:06.169Z,97665.50
2022-08-19T20:01:54.905Z,97659.88
2022-08-19T20:04:42.110Z,97653.91
2022-08-19T20:07:50.977Z,97653.31
2022-08-19T20:10:39.142Z,97661.09
2022-08-19T20:13:24.901Z,97655.72
2022-08-19T20:16:07.332Z,97656.56
2022-08-19T20:18:57.069Z,97655.03
2022-08-19T20:21:52.739Z,97645.78
2022-08-19T20:24:43.862Z,97648.56
2022-08-19T20:27:39.961Z,97641.84
2022-08-19T20:30:29.802Z,97635.53
2022-08-19T20:33:15.640Z,97639.72
2022-08-19T20:36:04.833Z,97633.59
2022-08-19T20:38:47.182Z,97638.41
2022-08-19T20:41:35.806Z,97633.13
2022-08-19T20:44:18.251Z,97636.41
2022-08-19T20:47:06.931Z,97626.44
2022-08-19T20:49:49.159Z,97636.16
2022-08-19T20:52:37.955Z,97620.66
2022-08-19T20:55:22.747Z,97620.97
2022-08-19T20:58:11.884Z,97613.84
2022-08-19T21:01:02.900Z,97624.34
2022-08-19T21:03:52.772Z,97635.66
2022-08-19T21:06:35.173Z,97629.75
2022-08-19T21:09:23.757Z,97626.94
2022-08-19T21:12:12.803Z,97629.44
2022-08-19T21:15:01.046Z,97624.34
2022-08-19T21:17:42.849Z,97624.09
2022-08-19T21:20:31.861Z,97623.69
2022-08-19T21:23:30.706Z,97625.25
2022-08-19T21:26:19.865Z,97620.19
2022-08-19T21:29:02.120Z,97618.03
2022-08-19T21:31:50.919Z,97616.50
2022-08-19T21:34:33.171Z,97611.31
2022-08-19T21:37:25.167Z,97605.44
2022-08-19T21:40:08.170Z,97601.88
2022-08-19T21:42:56.857Z,97595.78
2022-08-19T21:45:39.054Z,97594.06
2022-08-19T21:48:27.906Z,97604.44
2022-08-19T21:51:10.045Z,97602.50
2022-08-19T21:53:58.849Z,97599.44
2022-08-19T21:56:42.120Z,97593.63
2022-08-19T21:59:30.914Z,97593.97
2022-08-19T22:02:20.516Z,97602.59
2022-08-19T22:05:09.895Z,97598.97
2022-08-19T22:07:52.062Z,97593.38
2022-08-19T22:10:42.789Z,97604.38
2022-08-19T22:13:26.017Z,97607.06
2022-08-19T22:16:14.832Z,97613.41
2022-08-19T22:18:58.358Z,97609.44
2022-08-19T22:21:46.873Z,97620.56
2022-08-19T22:24:29.347Z,97626.88
2022-08-19T22:27:17.844Z,97620.00
2022-08-19T22:30:06.888Z,97624.16
2022-08-19T22:32:56.318Z,97622.06
2022-08-19T22:35:47.828Z,97625.56
2022-08-19T22:38:30.034Z,97626.09
2022-08-19T22:41:19.855Z,97618.03
2022-08-19T22:44:02.231Z,97630.31
2022-08-19T22:46:50.846Z,97621.59
2022-08-19T22:49:33.038Z,97629.22
2022-08-19T22:52:27.883Z,97626.41
2022-08-19T22:55:10.232Z,97638.47
2022-08-19T22:57:58.886Z,97633.47
2022-08-19T23:00:47.166Z,97632.34
2022-08-19T23:03:28.875Z,97625.63
2022-08-19T23:06:11.609Z,97633.84
2022-08-19T23:09:00.858Z,97635.47
2022-08-19T23:11:49.136Z,97639.91
2022-08-19T23:14:31.840Z,97644.28
2022-08-19T23:17:20.699Z,97650.16
2022-08-19T23:20:03.744Z,97654.09
2022-08-19T23:23:01.865Z,97645.44
2022-08-19T23:25:44.014Z,97644.41
2022-08-19T23:28:52.947Z,97642.38
2022-08-19T23:31:42.850Z,97644.09
2022-08-19T23:34:31.239Z,97644.31
2022-08-19T23:37:12.839Z,97653.25
2022-08-19T23:40:01.348Z,97656.13
2022-08-19T23:42:42.778Z,97658.19
2022-08-19T23:45:26.972Z,97659.13
2022-08-19T23:48:15.861Z,97669.56
2022-08-19T23:50:59.267Z,97669.78
2022-08-19T23:53:49.166Z,97669.78
2022-08-19T23:56:37.868Z,97668.00
2022-08-19T23:59:20.612Z,97681.84
